Terminal Aerodrome Forecast
Issued by NWS Green Bay, WI

Home | Current Version | Previous Version | Graphics & Text | Print | Product List | Glossary On
Versions: 1 2 3 4 5 6 7 8 9 10 11 12 13 14 15 16 17 18 19 20 21 22 23 24 25 26 27 28 29 30 31 32 33 34 35 36 37 38 39 40 41 42 43 44 45 46 47 48 49
000
FTUS43 KGRB 271124
TAFGRB
TAF
KGRB 271124Z 2712/2812 33002KT P6SM OVC005
      TEMPO 2712/2715 3SM BR SCT005 OVC016
     FM271500 VRB03KT P6SM OVC008
     FM271900 04003KT P6SM OVC011
     FM280100 04004KT P6SM OVC009
     FM280600 01004KT P6SM BKN012=

USA.gov is the U.S. government's official web portal to all federal, state and local government web resources and services.